sensor_id;sensor_type;location;lat;lon;timestamp;P1;durP1;ratioP1;P2;durP2;ratioP2
23578;SDS011;11967;50.852;4.400;2023-06-26T00:01:17;8.70;;;5.18;;
23578;SDS011;11967;50.852;4.400;2023-06-26T00:03:46;7.47;;;5.70;;
23578;SDS011;11967;50.852;4.400;2023-06-26T00:06:12;7.72;;;5.55;;
23578;SDS011;11967;50.852;4.400;2023-06-26T00:08:38;8.02;;;5.68;;
23578;SDS011;11967;50.852;4.400;2023-06-26T00:11:04;7.18;;;5.35;;
23578;SDS011;11967;50.852;4.400;2023-06-26T00:13:30;7.97;;;5.10;;
23578;SDS011;11967;50.852;4.400;2023-06-26T00:15:55;7.85;;;5.22;;
23578;SDS011;11967;50.852;4.400;2023-06-26T00:18:21;7.05;;;4.95;;
23578;SDS011;11967;50.852;4.400;2023-06-26T00:20:48;7.70;;;5.00;;
23578;SDS011;11967;50.852;4.400;2023-06-26T00:23:16;9.05;;;4.93;;
23578;SDS011;11967;50.852;4.400;2023-06-26T00:25:42;7.78;;;4.32;;
23578;SDS011;11967;50.852;4.400;2023-06-26T00:28:08;7.38;;;3.95;;
23578;SDS011;11967;50.852;4.400;2023-06-26T00:30:35;7.65;;;4.10;;
23578;SDS011;11967;50.852;4.400;2023-06-26T00:33:01;8.45;;;4.70;;
23578;SDS011;11967;50.852;4.400;2023-06-26T00:35:26;6.80;;;4.45;;
23578;SDS011;11967;50.852;4.400;2023-06-26T00:37:52;6.93;;;4.50;;
23578;SDS011;11967;50.852;4.400;2023-06-26T00:40:18;5.38;;;4.50;;
23578;SDS011;11967;50.852;4.400;2023-06-26T00:42:43;8.07;;;4.80;;
23578;SDS011;11967;50.852;4.400;2023-06-26T00:45:09;7.20;;;4.43;;
23578;SDS011;11967;50.852;4.400;2023-06-26T00:47:34;7.75;;;4.57;;
23578;SDS011;11967;50.852;4.400;2023-06-26T00:50:01;4.95;;;4.00;;
23578;SDS011;11967;50.852;4.400;2023-06-26T00:52:27;7.00;;;4.22;;
23578;SDS011;11967;50.852;4.400;2023-06-26T00:54:54;6.70;;;4.10;;
23578;SDS011;11967;50.852;4.400;2023-06-26T00:57:21;5.93;;;4.03;;
23578;SDS011;11967;50.852;4.400;2023-06-26T00:59:46;8.35;;;4.50;;
23578;SDS011;11967;50.852;4.400;2023-06-26T01:02:13;9.25;;;4.43;;
23578;SDS011;11967;50.852;4.400;2023-06-26T01:04:42;8.00;;;3.95;;
23578;SDS011;11967;50.852;4.400;2023-06-26T01:07:11;8.18;;;4.25;;
23578;SDS011;11967;50.852;4.400;2023-06-26T01:09:40;9.02;;;4.45;;
23578;SDS011;11967;50.852;4.400;2023-06-26T01:12:06;8.27;;;4.50;;
23578;SDS011;11967;50.852;4.400;2023-06-26T01:14:35;6.35;;;3.97;;
23578;SDS011;11967;50.852;4.400;2023-06-26T01:17:01;6.03;;;3.88;;
23578;SDS011;11967;50.852;4.400;2023-06-26T01:19:28;6.90;;;4.00;;
23578;SDS011;11967;50.852;4.400;2023-06-26T01:22:45;7.22;;;4.03;;
23578;SDS011;11967;50.852;4.400;2023-06-26T01:24:56;8.43;;;3.88;;
23578;SDS011;11967;50.852;4.400;2023-06-26T01:27:45;7.97;;;3.78;;
23578;SDS011;11967;50.852;4.400;2023-06-26T01:30:13;7.05;;;3.67;;
23578;SDS011;11967;50.852;4.400;2023-06-26T01:32:40;6.82;;;3.40;;
23578;SDS011;11967;50.852;4.400;2023-06-26T01:35:07;5.82;;;3.50;;
23578;SDS011;11967;50.852;4.400;2023-06-26T01:37:34;7.82;;;3.97;;
23578;SDS011;11967;50.852;4.400;2023-06-26T01:40:00;6.50;;;4.05;;
23578;SDS011;11967;50.852;4.400;2023-06-26T01:42:25;7.55;;;3.83;;
23578;SDS011;11967;50.852;4.400;2023-06-26T01:44:52;8.15;;;4.07;;
23578;SDS011;11967;50.852;4.400;2023-06-26T01:47:21;8.00;;;3.78;;
23578;SDS011;11967;50.852;4.400;2023-06-26T01:49:50;8.30;;;3.92;;
23578;SDS011;11967;50.852;4.400;2023-06-26T01:55:21;7.57;;;3.70;;
23578;SDS011;11967;50.852;4.400;2023-06-26T01:58:06;7.50;;;3.50;;
23578;SDS011;11967;50.852;4.400;2023-06-26T02:00:32;7.50;;;3.58;;
23578;SDS011;11967;50.852;4.400;2023-06-26T02:02:58;8.15;;;3.83;;
23578;SDS011;11967;50.852;4.400;2023-06-26T02:05:24;8.63;;;4.07;;
23578;SDS011;11967;50.852;4.400;2023-06-26T02:07:50;7.68;;;4.20;;
23578;SDS011;11967;50.852;4.400;2023-06-26T02:10:16;7.60;;;4.05;;
23578;SDS011;11967;50.852;4.400;2023-06-26T02:12:42;6.70;;;3.40;;
23578;SDS011;11967;50.852;4.400;2023-06-26T02:15:08;7.47;;;3.90;;
23578;SDS011;11967;50.852;4.400;2023-06-26T02:17:34;8.55;;;3.80;;
23578;SDS011;11967;50.852;4.400;2023-06-26T02:19:59;8.10;;;4.10;;
23578;SDS011;11967;50.852;4.400;2023-06-26T02:22:25;7.70;;;3.70;;
23578;SDS011;11967;50.852;4.400;2023-06-26T02:24:53;10.23;;;4.00;;
23578;SDS011;11967;50.852;4.400;2023-06-26T02:27:19;8.15;;;3.78;;
23578;SDS011;11967;50.852;4.400;2023-06-26T02:29:44;7.40;;;3.58;;
23578;SDS011;11967;50.852;4.400;2023-06-26T02:32:10;10.00;;;3.90;;
23578;SDS011;11967;50.852;4.400;2023-06-26T02:34:36;9.50;;;3.72;;
23578;SDS011;11967;50.852;4.400;2023-06-26T02:37:01;8.35;;;3.80;;
23578;SDS011;11967;50.852;4.400;2023-06-26T02:39:27;10.32;;;3.80;;
23578;SDS011;11967;50.852;4.400;2023-06-26T02:41:53;7.32;;;3.85;;
23578;SDS011;11967;50.852;4.400;2023-06-26T02:44:19;7.28;;;3.85;;
23578;SDS011;11967;50.852;4.400;2023-06-26T02:46:44;8.27;;;3.90;;
23578;SDS011;11967;50.852;4.400;2023-06-26T02:49:10;7.45;;;3.78;;
23578;SDS011;11967;50.852;4.400;2023-06-26T02:51:36;10.55;;;4.10;;
23578;SDS011;11967;50.852;4.400;2023-06-26T02:54:02;7.60;;;3.90;;
23578;SDS011;11967;50.852;4.400;2023-06-26T02:56:28;11.15;;;3.70;;
23578;SDS011;11967;50.852;4.400;2023-06-26T02:58:54;10.07;;;4.43;;
23578;SDS011;11967;50.852;4.400;2023-06-26T03:01:20;11.07;;;4.32;;
23578;SDS011;11967;50.852;4.400;2023-06-26T03:03:46;9.27;;;3.90;;
23578;SDS011;11967;50.852;4.400;2023-06-26T03:06:12;8.57;;;4.00;;
23578;SDS011;11967;50.852;4.400;2023-06-26T03:08:38;10.88;;;3.78;;
23578;SDS011;11967;50.852;4.400;2023-06-26T03:11:08;9.30;;;3.95;;
23578;SDS011;11967;50.852;4.400;2023-06-26T03:13:35;11.63;;;4.38;;
23578;SDS011;11967;50.852;4.400;2023-06-26T03:16:01;10.68;;;4.32;;
23578;SDS011;11967;50.852;4.400;2023-06-26T03:18:27;8.23;;;3.70;;
23578;SDS011;11967;50.852;4.400;2023-06-26T03:20:57;9.60;;;4.10;;
23578;SDS011;11967;50.852;4.400;2023-06-26T03:23:23;10.80;;;3.90;;
23578;SDS011;11967;50.852;4.400;2023-06-26T03:25:49;10.57;;;4.10;;
23578;SDS011;11967;50.852;4.400;2023-06-26T03:28:15;10.75;;;4.05;;
23578;SDS011;11967;50.852;4.400;2023-06-26T03:30:41;9.25;;;3.92;;
23578;SDS011;11967;50.852;4.400;2023-06-26T03:33:07;9.00;;;3.88;;
23578;SDS011;11967;50.852;4.400;2023-06-26T03:35:32;12.95;;;4.55;;
23578;SDS011;11967;50.852;4.400;2023-06-26T03:37:58;10.00;;;4.13;;
23578;SDS011;11967;50.852;4.400;2023-06-26T03:40:24;13.68;;;4.32;;
23578;SDS011;11967;50.852;4.400;2023-06-26T03:42:49;13.15;;;4.38;;
23578;SDS011;11967;50.852;4.400;2023-06-26T03:45:15;9.32;;;4.28;;
23578;SDS011;11967;50.852;4.400;2023-06-26T03:47:40;9.65;;;4.22;;
23578;SDS011;11967;50.852;4.400;2023-06-26T03:50:08;14.13;;;4.50;;
23578;SDS011;11967;50.852;4.400;2023-06-26T03:52:43;14.70;;;5.00;;
23578;SDS011;11967;50.852;4.400;2023-06-26T03:55:09;12.05;;;4.30;;
23578;SDS011;11967;50.852;4.400;2023-06-26T03:57:34;11.75;;;3.97;;
23578;SDS011;11967;50.852;4.400;2023-06-26T04:00:00;15.20;;;5.05;;
23578;SDS011;11967;50.852;4.400;2023-06-26T04:02:26;11.93;;;4.35;;
23578;SDS011;11967;50.852;4.400;2023-06-26T04:04:52;15.13;;;4.40;;
23578;SDS011;11967;50.852;4.400;2023-06-26T04:07:18;14.48;;;4.50;;
23578;SDS011;11967;50.852;4.400;2023-06-26T04:09:44;11.32;;;4.07;;
23578;SDS011;11967;50.852;4.400;2023-06-26T04:12:10;13.38;;;4.40;;
23578;SDS011;11967;50.852;4.400;2023-06-26T04:14:35;12.32;;;4.35;;
23578;SDS011;11967;50.852;4.400;2023-06-26T04:17:01;11.80;;;4.13;;
23578;SDS011;11967;50.852;4.400;2023-06-26T04:19:28;13.18;;;4.45;;
23578;SDS011;11967;50.852;4.400;2023-06-26T04:21:56;19.13;;;4.60;;
23578;SDS011;11967;50.852;4.400;2023-06-26T04:24:22;13.57;;;4.22;;
23578;SDS011;11967;50.852;4.400;2023-06-26T04:26:48;14.65;;;4.85;;
23578;SDS011;11967;50.852;4.400;2023-06-26T04:29:13;12.45;;;4.10;;
23578;SDS011;11967;50.852;4.400;2023-06-26T04:31:39;13.02;;;3.95;;
23578;SDS011;11967;50.852;4.400;2023-06-26T04:34:05;18.13;;;4.75;;
23578;SDS011;11967;50.852;4.400;2023-06-26T04:36:30;9.27;;;3.50;;
23578;SDS011;11967;50.852;4.400;2023-06-26T04:38:58;14.98;;;3.92;;
23578;SDS011;11967;50.852;4.400;2023-06-26T04:41:24;14.65;;;4.65;;
23578;SDS011;11967;50.852;4.400;2023-06-26T04:43:50;12.52;;;3.78;;
23578;SDS011;11967;50.852;4.400;2023-06-26T04:46:15;17.40;;;4.30;;
23578;SDS011;11967;50.852;4.400;2023-06-26T04:48:41;13.65;;;3.75;;
23578;SDS011;11967;50.852;4.400;2023-06-26T04:51:07;12.48;;;3.95;;
23578;SDS011;11967;50.852;4.400;2023-06-26T04:53:33;14.77;;;4.05;;
23578;SDS011;11967;50.852;4.400;2023-06-26T04:55:58;14.90;;;3.92;;
23578;SDS011;11967;50.852;4.400;2023-06-26T04:58:24;17.20;;;4.13;;
23578;SDS011;11967;50.852;4.400;2023-06-26T05:00:50;10.93;;;3.95;;
23578;SDS011;11967;50.852;4.400;2023-06-26T05:03:16;16.85;;;3.72;;
23578;SDS011;11967;50.852;4.400;2023-06-26T05:05:48;14.60;;;4.17;;
23578;SDS011;11967;50.852;4.400;2023-06-26T05:08:21;16.92;;;3.90;;
23578;SDS011;11967;50.852;4.400;2023-06-26T05:11:01;13.98;;;3.65;;
23578;SDS011;11967;50.852;4.400;2023-06-26T05:13:26;15.20;;;4.30;;
23578;SDS011;11967;50.852;4.400;2023-06-26T05:15:55;17.15;;;3.80;;
23578;SDS011;11967;50.852;4.400;2023-06-26T05:18:20;12.82;;;4.15;;
23578;SDS011;11967;50.852;4.400;2023-06-26T05:20:46;10.70;;;3.75;;
23578;SDS011;11967;50.852;4.400;2023-06-26T05:23:12;17.98;;;4.05;;
23578;SDS011;11967;50.852;4.400;2023-06-26T05:25:38;17.25;;;4.45;;
23578;SDS011;11967;50.852;4.400;2023-06-26T05:28:05;14.50;;;4.00;;
23578;SDS011;11967;50.852;4.400;2023-06-26T05:30:31;14.77;;;3.83;;
23578;SDS011;11967;50.852;4.400;2023-06-26T05:32:59;10.57;;;3.38;;
23578;SDS011;11967;50.852;4.400;2023-06-26T05:35:25;14.13;;;3.70;;
23578;SDS011;11967;50.852;4.400;2023-06-26T05:37:55;10.18;;;2.83;;
23578;SDS011;11967;50.852;4.400;2023-06-26T05:40:21;15.02;;;3.78;;
23578;SDS011;11967;50.852;4.400;2023-06-26T05:42:47;11.25;;;3.63;;
23578;SDS011;11967;50.852;4.400;2023-06-26T05:45:14;11.90;;;3.55;;
23578;SDS011;11967;50.852;4.400;2023-06-26T05:47:41;10.55;;;3.05;;
23578;SDS011;11967;50.852;4.400;2023-06-26T05:50:07;14.73;;;3.75;;
23578;SDS011;11967;50.852;4.400;2023-06-26T05:52:34;10.02;;;3.38;;
23578;SDS011;11967;50.852;4.400;2023-06-26T05:55:01;10.10;;;3.35;;
23578;SDS011;11967;50.852;4.400;2023-06-26T05:57:27;10.95;;;3.40;;
23578;SDS011;11967;50.852;4.400;2023-06-26T05:59:54;13.57;;;3.17;;
23578;SDS011;11967;50.852;4.400;2023-06-26T06:02:20;12.23;;;3.15;;
23578;SDS011;11967;50.852;4.400;2023-06-26T06:04:46;16.40;;;3.20;;
23578;SDS011;11967;50.852;4.400;2023-06-26T06:07:12;12.15;;;3.65;;
23578;SDS011;11967;50.852;4.400;2023-06-26T06:09:38;12.85;;;3.50;;
23578;SDS011;11967;50.852;4.400;2023-06-26T06:12:04;12.80;;;3.28;;
23578;SDS011;11967;50.852;4.400;2023-06-26T06:14:31;11.63;;;3.45;;
23578;SDS011;11967;50.852;4.400;2023-06-26T06:16:57;13.88;;;3.00;;
23578;SDS011;11967;50.852;4.400;2023-06-26T06:19:23;10.15;;;2.95;;
23578;SDS011;11967;50.852;4.400;2023-06-26T06:21:48;9.65;;;2.70;;
23578;SDS011;11967;50.852;4.400;2023-06-26T06:24:15;10.27;;;2.80;;
23578;SDS011;11967;50.852;4.400;2023-06-26T06:26:41;9.20;;;2.53;;
23578;SDS011;11967;50.852;4.400;2023-06-26T06:29:06;11.18;;;2.30;;
23578;SDS011;11967;50.852;4.400;2023-06-26T06:31:32;10.85;;;2.60;;
23578;SDS011;11967;50.852;4.400;2023-06-26T06:33:58;9.98;;;2.90;;
23578;SDS011;11967;50.852;4.400;2023-06-26T06:36:23;9.52;;;2.75;;
23578;SDS011;11967;50.852;4.400;2023-06-26T06:38:49;12.00;;;2.60;;
23578;SDS011;11967;50.852;4.400;2023-06-26T06:41:16;7.75;;;2.55;;
23578;SDS011;11967;50.852;4.400;2023-06-26T06:43:41;10.93;;;2.67;;
23578;SDS011;11967;50.852;4.400;2023-06-26T06:46:07;9.65;;;2.38;;
23578;SDS011;11967;50.852;4.400;2023-06-26T06:48:33;16.27;;;3.10;;
23578;SDS011;11967;50.852;4.400;2023-06-26T06:50:59;8.35;;;2.97;;
23578;SDS011;11967;50.852;4.400;2023-06-26T06:53:25;7.97;;;2.65;;
23578;SDS011;11967;50.852;4.400;2023-06-26T06:55:56;8.20;;;2.50;;
23578;SDS011;11967;50.852;4.400;2023-06-26T06:58:28;8.48;;;2.63;;
23578;SDS011;11967;50.852;4.400;2023-06-26T07:00:53;8.00;;;2.25;;
23578;SDS011;11967;50.852;4.400;2023-06-26T07:03:20;7.50;;;2.10;;
23578;SDS011;11967;50.852;4.400;2023-06-26T07:05:47;14.30;;;2.83;;
23578;SDS011;11967;50.852;4.400;2023-06-26T07:08:13;7.95;;;2.22;;
23578;SDS011;11967;50.852;4.400;2023-06-26T07:10:39;9.00;;;2.47;;
23578;SDS011;11967;50.852;4.400;2023-06-26T07:13:05;11.07;;;2.50;;
23578;SDS011;11967;50.852;4.400;2023-06-26T07:15:30;10.63;;;2.25;;
23578;SDS011;11967;50.852;4.400;2023-06-26T07:17:56;9.85;;;2.28;;
23578;SDS011;11967;50.852;4.400;2023-06-26T07:20:21;12.93;;;1.95;;
23578;SDS011;11967;50.852;4.400;2023-06-26T07:22:47;8.50;;;2.30;;
23578;SDS011;11967;50.852;4.400;2023-06-26T07:25:13;8.90;;;2.30;;
23578;SDS011;11967;50.852;4.400;2023-06-26T07:27:39;8.45;;;2.33;;
23578;SDS011;11967;50.852;4.400;2023-06-26T07:30:06;11.95;;;2.55;;
23578;SDS011;11967;50.852;4.400;2023-06-26T07:32:34;10.15;;;2.25;;
23578;SDS011;11967;50.852;4.400;2023-06-26T07:35:00;7.18;;;2.22;;
23578;SDS011;11967;50.852;4.400;2023-06-26T07:37:26;11.85;;;2.35;;
23578;SDS011;11967;50.852;4.400;2023-06-26T07:39:51;6.93;;;2.30;;
23578;SDS011;11967;50.852;4.400;2023-06-26T07:42:18;6.40;;;2.42;;
23578;SDS011;11967;50.852;4.400;2023-06-26T07:44:44;7.03;;;2.10;;
23578;SDS011;11967;50.852;4.400;2023-06-26T07:47:10;13.40;;;2.35;;
23578;SDS011;11967;50.852;4.400;2023-06-26T07:49:36;10.18;;;2.47;;
23578;SDS011;11967;50.852;4.400;2023-06-26T07:52:02;13.07;;;2.60;;
23578;SDS011;11967;50.852;4.400;2023-06-26T07:54:28;7.82;;;2.20;;
23578;SDS011;11967;50.852;4.400;2023-06-26T07:56:55;7.50;;;2.40;;
23578;SDS011;11967;50.852;4.400;2023-06-26T07:59:24;7.20;;;1.98;;
23578;SDS011;11967;50.852;4.400;2023-06-26T08:01:51;17.45;;;2.50;;
23578;SDS011;11967;50.852;4.400;2023-06-26T08:04:18;6.03;;;1.80;;
23578;SDS011;11967;50.852;4.400;2023-06-26T08:06:45;9.25;;;2.05;;
23578;SDS011;11967;50.852;4.400;2023-06-26T08:09:12;8.30;;;2.30;;
23578;SDS011;11967;50.852;4.400;2023-06-26T08:11:38;8.95;;;2.08;;
23578;SDS011;11967;50.852;4.400;2023-06-26T08:14:04;5.78;;;1.88;;
23578;SDS011;11967;50.852;4.400;2023-06-26T08:16:29;6.78;;;2.20;;
23578;SDS011;11967;50.852;4.400;2023-06-26T08:18:55;8.05;;;2.10;;
23578;SDS011;11967;50.852;4.400;2023-06-26T08:21:21;7.32;;;2.08;;
23578;SDS011;11967;50.852;4.400;2023-06-26T08:23:46;10.80;;;2.45;;
23578;SDS011;11967;50.852;4.400;2023-06-26T08:26:13;7.25;;;2.00;;
23578;SDS011;11967;50.852;4.400;2023-06-26T08:28:39;5.25;;;1.98;;
23578;SDS011;11967;50.852;4.400;2023-06-26T08:31:04;11.05;;;2.05;;
23578;SDS011;11967;50.852;4.400;2023-06-26T08:33:30;5.90;;;1.92;;
23578;SDS011;11967;50.852;4.400;2023-06-26T08:35:55;7.78;;;2.30;;
23578;SDS011;11967;50.852;4.400;2023-06-26T08:38:21;7.85;;;2.05;;
23578;SDS011;11967;50.852;4.400;2023-06-26T08:40:48;7.38;;;1.92;;
23578;SDS011;11967;50.852;4.400;2023-06-26T08:43:14;8.88;;;2.17;;
23578;SDS011;11967;50.852;4.400;2023-06-26T08:45:40;8.43;;;2.22;;
23578;SDS011;11967;50.852;4.400;2023-06-26T08:48:09;7.68;;;1.90;;
23578;SDS011;11967;50.852;4.400;2023-06-26T08:50:35;8.70;;;2.20;;
23578;SDS011;11967;50.852;4.400;2023-06-26T08:53:04;11.40;;;1.63;;
23578;SDS011;11967;50.852;4.400;2023-06-26T08:55:38;6.30;;;1.85;;
23578;SDS011;11967;50.852;4.400;2023-06-26T08:58:06;7.40;;;2.10;;
23578;SDS011;11967;50.852;4.400;2023-06-26T09:00:33;7.65;;;1.77;;
23578;SDS011;11967;50.852;4.400;2023-06-26T09:02:59;5.30;;;2.03;;
23578;SDS011;11967;50.852;4.400;2023-06-26T09:05:28;6.72;;;1.92;;
23578;SDS011;11967;50.852;4.400;2023-06-26T09:07:54;8.52;;;2.00;;
23578;SDS011;11967;50.852;4.400;2023-06-26T09:10:21;5.63;;;1.88;;
23578;SDS011;11967;50.852;4.400;2023-06-26T09:12:47;6.30;;;2.13;;
23578;SDS011;11967;50.852;4.400;2023-06-26T09:15:15;5.88;;;2.20;;
23578;SDS011;11967;50.852;4.400;2023-06-26T09:17:43;5.75;;;2.05;;
23578;SDS011;11967;50.852;4.400;2023-06-26T09:20:09;5.32;;;2.10;;
23578;SDS011;11967;50.852;4.400;2023-06-26T09:22:40;4.93;;;1.92;;
23578;SDS011;11967;50.852;4.400;2023-06-26T09:25:08;5.05;;;1.90;;
23578;SDS011;11967;50.852;4.400;2023-06-26T09:27:35;5.93;;;1.98;;
23578;SDS011;11967;50.852;4.400;2023-06-26T09:30:05;5.95;;;1.95;;
23578;SDS011;11967;50.852;4.400;2023-06-26T09:32:37;6.80;;;2.03;;
23578;SDS011;11967;50.852;4.400;2023-06-26T09:35:03;5.57;;;1.90;;
23578;SDS011;11967;50.852;4.400;2023-06-26T09:37:29;6.38;;;2.13;;
23578;SDS011;11967;50.852;4.400;2023-06-26T09:39:55;6.60;;;1.75;;
23578;SDS011;11967;50.852;4.400;2023-06-26T09:42:21;7.03;;;2.05;;
23578;SDS011;11967;50.852;4.400;2023-06-26T09:44:48;7.63;;;2.10;;
23578;SDS011;11967;50.852;4.400;2023-06-26T09:47:18;8.50;;;2.22;;
23578;SDS011;11967;50.852;4.400;2023-06-26T09:49:44;5.43;;;1.90;;
23578;SDS011;11967;50.852;4.400;2023-06-26T09:52:13;8.15;;;2.20;;
23578;SDS011;11967;50.852;4.400;2023-06-26T09:54:41;12.25;;;1.88;;
23578;SDS011;11967;50.852;4.400;2023-06-26T09:57:12;12.65;;;2.08;;
23578;SDS011;11967;50.852;4.400;2023-06-26T09:59:40;9.98;;;1.90;;
23578;SDS011;11967;50.852;4.400;2023-06-26T10:02:09;6.07;;;2.08;;
23578;SDS011;11967;50.852;4.400;2023-06-26T10:04:36;7.78;;;2.00;;
23578;SDS011;11967;50.852;4.400;2023-06-26T10:07:04;5.07;;;1.85;;
23578;SDS011;11967;50.852;4.400;2023-06-26T10:09:31;5.50;;;1.83;;
23578;SDS011;11967;50.852;4.400;2023-06-26T10:12:12;9.85;;;2.20;;
23578;SDS011;11967;50.852;4.400;2023-06-26T10:14:50;6.53;;;1.90;;
23578;SDS011;11967;50.852;4.400;2023-06-26T10:17:19;8.85;;;1.90;;
23578;SDS011;11967;50.852;4.400;2023-06-26T10:19:48;9.07;;;1.90;;
23578;SDS011;11967;50.852;4.400;2023-06-26T10:22:17;7.18;;;2.15;;
23578;SDS011;11967;50.852;4.400;2023-06-26T10:24:45;7.00;;;1.88;;
23578;SDS011;11967;50.852;4.400;2023-06-26T10:27:21;8.02;;;1.85;;
23578;SDS011;11967;50.852;4.400;2023-06-26T10:29:56;6.03;;;1.90;;
23578;SDS011;11967;50.852;4.400;2023-06-26T10:32:27;6.18;;;1.98;;
23578;SDS011;11967;50.852;4.400;2023-06-26T10:34:54;3.65;;;1.88;;
23578;SDS011;11967;50.852;4.400;2023-06-26T10:37:21;6.45;;;1.80;;
23578;SDS011;11967;50.852;4.400;2023-06-26T10:40:05;5.63;;;2.20;;
23578;SDS011;11967;50.852;4.400;2023-06-26T10:42:35;6.28;;;2.38;;
23578;SDS011;11967;50.852;4.400;2023-06-26T10:47:45;8.23;;;1.63;;
23578;SDS011;11967;50.852;4.400;2023-06-26T10:50:27;8.45;;;1.88;;
23578;SDS011;11967;50.852;4.400;2023-06-26T10:53:09;67.93;;;31.77;;
23578;SDS011;11967;50.852;4.400;2023-06-26T10:55:54;100.68;;;62.42;;
23578;SDS011;11967;50.852;4.400;2023-06-26T10:58:28;36.38;;;21.15;;
23578;SDS011;11967;50.852;4.400;2023-06-26T11:03:48;15.15;;;4.20;;
23578;SDS011;11967;50.852;4.400;2023-06-26T11:06:31;11.25;;;2.30;;
23578;SDS011;11967;50.852;4.400;2023-06-26T11:09:17;8.63;;;1.85;;
23578;SDS011;11967;50.852;4.400;2023-06-26T11:14:31;13.65;;;2.70;;
23578;SDS011;11967;50.852;4.400;2023-06-26T11:16:58;6.65;;;2.88;;
23578;SDS011;11967;50.852;4.400;2023-06-26T11:19:44;8.32;;;2.15;;
23578;SDS011;11967;50.852;4.400;2023-06-26T11:22:12;8.18;;;2.63;;
23578;SDS011;11967;50.852;4.400;2023-06-26T11:24:40;10.52;;;2.40;;
23578;SDS011;11967;50.852;4.400;2023-06-26T11:27:08;10.38;;;2.30;;
23578;SDS011;11967;50.852;4.400;2023-06-26T11:29:33;8.13;;;2.38;;
23578;SDS011;11967;50.852;4.400;2023-06-26T11:32:00;7.35;;;2.67;;
23578;SDS011;11967;50.852;4.400;2023-06-26T11:34:29;5.85;;;2.60;;
23578;SDS011;11967;50.852;4.400;2023-06-26T11:36:56;8.18;;;2.63;;
23578;SDS011;11967;50.852;4.400;2023-06-26T11:39:22;8.65;;;3.08;;
23578;SDS011;11967;50.852;4.400;2023-06-26T11:41:47;8.43;;;2.38;;
23578;SDS011;11967;50.852;4.400;2023-06-26T11:44:14;4.95;;;2.47;;
23578;SDS011;11967;50.852;4.400;2023-06-26T11:46:45;3.72;;;1.73;;
23578;SDS011;11967;50.852;4.400;2023-06-26T11:49:12;8.32;;;2.70;;
23578;SDS011;11967;50.852;4.400;2023-06-26T11:51:37;6.90;;;2.40;;
23578;SDS011;11967;50.852;4.400;2023-06-26T11:54:03;5.30;;;1.80;;
23578;SDS011;11967;50.852;4.400;2023-06-26T11:56:31;10.20;;;2.20;;
23578;SDS011;11967;50.852;4.400;2023-06-26T11:58:57;10.32;;;2.38;;
23578;SDS011;11967;50.852;4.400;2023-06-26T12:01:38;8.35;;;1.98;;
23578;SDS011;11967;50.852;4.400;2023-06-26T12:04:06;5.85;;;2.10;;
23578;SDS011;11967;50.852;4.400;2023-06-26T12:06:33;4.93;;;1.67;;
23578;SDS011;11967;50.852;4.400;2023-06-26T12:09:01;6.10;;;2.03;;
23578;SDS011;11967;50.852;4.400;2023-06-26T12:11:32;4.55;;;1.90;;
23578;SDS011;11967;50.852;4.400;2023-06-26T12:13:59;6.47;;;2.20;;
23578;SDS011;11967;50.852;4.400;2023-06-26T12:16:29;7.22;;;1.98;;
23578;SDS011;11967;50.852;4.400;2023-06-26T12:19:02;5.38;;;1.75;;
23578;SDS011;11967;50.852;4.400;2023-06-26T12:24:03;6.38;;;1.80;;
23578;SDS011;11967;50.852;4.400;2023-06-26T12:26:30;8.07;;;2.00;;
23578;SDS011;11967;50.852;4.400;2023-06-26T12:29:04;7.13;;;2.03;;
23578;SDS011;11967;50.852;4.400;2023-06-26T12:31:39;5.53;;;1.88;;
23578;SDS011;11967;50.852;4.400;2023-06-26T12:34:13;4.38;;;1.88;;
23578;SDS011;11967;50.852;4.400;2023-06-26T12:36:49;8.40;;;2.00;;
23578;SDS011;11967;50.852;4.400;2023-06-26T12:39:17;7.97;;;1.90;;
23578;SDS011;11967;50.852;4.400;2023-06-26T12:41:52;4.60;;;1.45;;
23578;SDS011;11967;50.852;4.400;2023-06-26T12:44:20;3.95;;;1.60;;
23578;SDS011;11967;50.852;4.400;2023-06-26T12:46:47;6.55;;;1.80;;
23578;SDS011;11967;50.852;4.400;2023-06-26T12:49:14;7.35;;;2.30;;
23578;SDS011;11967;50.852;4.400;2023-06-26T12:51:40;6.03;;;2.15;;
23578;SDS011;11967;50.852;4.400;2023-06-26T12:54:08;9.10;;;2.38;;
23578;SDS011;11967;50.852;4.400;2023-06-26T12:56:34;6.57;;;1.90;;
23578;SDS011;11967;50.852;4.400;2023-06-26T12:59:00;11.10;;;2.00;;
23578;SDS011;11967;50.852;4.400;2023-06-26T13:01:27;7.20;;;3.28;;
23578;SDS011;11967;50.852;4.400;2023-06-26T13:03:53;7.75;;;2.92;;
23578;SDS011;11967;50.852;4.400;2023-06-26T13:06:20;9.18;;;2.58;;
23578;SDS011;11967;50.852;4.400;2023-06-26T13:08:46;9.65;;;2.13;;
23578;SDS011;11967;50.852;4.400;2023-06-26T13:11:11;4.13;;;2.75;;
23578;SDS011;11967;50.852;4.400;2023-06-26T13:13:37;5.95;;;2.17;;
23578;SDS011;11967;50.852;4.400;2023-06-26T13:16:03;4.88;;;1.80;;
23578;SDS011;11967;50.852;4.400;2023-06-26T13:18:30;3.92;;;1.90;;
23578;SDS011;11967;50.852;4.400;2023-06-26T13:20:55;8.02;;;2.22;;
23578;SDS011;11967;50.852;4.400;2023-06-26T13:23:21;5.50;;;1.92;;
23578;SDS011;11967;50.852;4.400;2023-06-26T13:25:46;9.15;;;2.10;;
23578;SDS011;11967;50.852;4.400;2023-06-26T13:28:12;5.70;;;2.00;;
23578;SDS011;11967;50.852;4.400;2023-06-26T13:30:37;5.72;;;1.92;;
23578;SDS011;11967;50.852;4.400;2023-06-26T13:33:03;9.05;;;2.08;;
23578;SDS011;11967;50.852;4.400;2023-06-26T13:35:29;5.93;;;1.83;;
23578;SDS011;11967;50.852;4.400;2023-06-26T13:37:54;7.53;;;2.40;;
23578;SDS011;11967;50.852;4.400;2023-06-26T13:40:20;4.75;;;2.10;;
23578;SDS011;11967;50.852;4.400;2023-06-26T13:42:47;5.97;;;1.85;;
23578;SDS011;11967;50.852;4.400;2023-06-26T13:45:12;9.30;;;2.63;;
23578;SDS011;11967;50.852;4.400;2023-06-26T13:47:38;5.85;;;1.98;;
23578;SDS011;11967;50.852;4.400;2023-06-26T13:50:10;9.70;;;2.33;;
23578;SDS011;11967;50.852;4.400;2023-06-26T13:52:36;5.85;;;2.10;;
23578;SDS011;11967;50.852;4.400;2023-06-26T13:55:01;6.20;;;1.75;;
23578;SDS011;11967;50.852;4.400;2023-06-26T13:57:31;5.80;;;1.75;;
23578;SDS011;11967;50.852;4.400;2023-06-26T13:59:57;7.53;;;1.80;;
23578;SDS011;11967;50.852;4.400;2023-06-26T14:02:22;6.50;;;1.90;;
23578;SDS011;11967;50.852;4.400;2023-06-26T14:04:48;10.43;;;2.08;;
23578;SDS011;11967;50.852;4.400;2023-06-26T14:07:14;6.95;;;1.70;;
23578;SDS011;11967;50.852;4.400;2023-06-26T14:09:39;4.57;;;1.70;;
23578;SDS011;11967;50.852;4.400;2023-06-26T14:12:05;7.50;;;1.92;;
23578;SDS011;11967;50.852;4.400;2023-06-26T14:14:32;3.78;;;1.85;;
23578;SDS011;11967;50.852;4.400;2023-06-26T14:16:59;6.90;;;2.03;;
23578;SDS011;11967;50.852;4.400;2023-06-26T14:19:25;7.15;;;2.10;;
23578;SDS011;11967;50.852;4.400;2023-06-26T14:21:51;7.10;;;1.92;;
23578;SDS011;11967;50.852;4.400;2023-06-26T14:24:18;7.90;;;2.33;;
23578;SDS011;11967;50.852;4.400;2023-06-26T14:26:43;6.05;;;2.40;;
23578;SDS011;11967;50.852;4.400;2023-06-26T14:29:09;6.20;;;2.15;;
23578;SDS011;11967;50.852;4.400;2023-06-26T14:31:35;6.90;;;2.22;;
23578;SDS011;11967;50.852;4.400;2023-06-26T14:34:00;8.05;;;1.77;;
23578;SDS011;11967;50.852;4.400;2023-06-26T14:36:27;6.93;;;1.77;;
23578;SDS011;11967;50.852;4.400;2023-06-26T14:38:57;6.93;;;2.10;;
23578;SDS011;11967;50.852;4.400;2023-06-26T14:41:24;6.53;;;1.55;;
23578;SDS011;11967;50.852;4.400;2023-06-26T14:43:50;8.07;;;2.00;;
23578;SDS011;11967;50.852;4.400;2023-06-26T14:46:16;7.07;;;2.10;;
23578;SDS011;11967;50.852;4.400;2023-06-26T14:48:42;6.03;;;2.05;;
23578;SDS011;11967;50.852;4.400;2023-06-26T14:51:08;7.70;;;2.08;;
23578;SDS011;11967;50.852;4.400;2023-06-26T14:53:38;9.68;;;2.67;;
23578;SDS011;11967;50.852;4.400;2023-06-26T14:56:03;7.13;;;1.77;;
23578;SDS011;11967;50.852;4.400;2023-06-26T14:58:30;6.65;;;2.00;;